sensor_id;sensor_type;location;lat;lon;timestamp;pressure;altitude;pressure_sealevel;temperature;humidity
45991;BME280;31721;41.740;-88.000;2022-09-01T00:00:30;98894.58;;;28.60;34.86
45991;BME280;31721;41.740;-88.000;2022-09-01T00:02:57;98892.79;;;28.46;34.80
45991;BME280;31721;41.740;-88.000;2022-09-01T00:05:26;98893.60;;;28.43;34.79
45991;BME280;31721;41.740;-88.000;2022-09-01T00:07:54;98898.89;;;28.46;35.06
45991;BME280;31721;41.740;-88.000;2022-09-01T00:10:22;98899.06;;;28.47;35.19
45991;BME280;31721;41.740;-88.000;2022-09-01T00:12:50;98901.91;;;28.47;35.17
45991;BME280;31721;41.740;-88.000;2022-09-01T00:15:18;98900.65;;;28.36;35.33
45991;BME280;31721;41.740;-88.000;2022-09-01T00:17:46;98900.90;;;28.27;35.40
45991;BME280;31721;41.740;-88.000;2022-09-01T00:20:18;98900.09;;;28.15;35.52
45991;BME280;31721;41.740;-88.000;2022-09-01T00:22:45;98895.96;;;28.07;35.75
45991;BME280;31721;41.740;-88.000;2022-09-01T00:25:13;98897.05;;;27.88;35.69
45991;BME280;31721;41.740;-88.000;2022-09-01T00:27:41;98898.69;;;27.86;36.00
45991;BME280;31721;41.740;-88.000;2022-09-01T00:30:09;98900.96;;;27.80;35.93
45991;BME280;31721;41.740;-88.000;2022-09-01T00:32:37;98903.20;;;27.56;36.31
45991;BME280;31721;41.740;-88.000;2022-09-01T00:35:06;98901.15;;;27.74;36.50
45991;BME280;31721;41.740;-88.000;2022-09-01T00:37:34;98902.41;;;27.62;36.51
45991;BME280;31721;41.740;-88.000;2022-09-01T00:40:02;98906.01;;;27.53;36.48
45991;BME280;31721;41.740;-88.000;2022-09-01T00:42:30;98907.99;;;27.48;36.66
45991;BME280;31721;41.740;-88.000;2022-09-01T00:44:57;98911.26;;;27.43;36.67
45991;BME280;31721;41.740;-88.000;2022-09-01T00:47:25;98914.53;;;27.29;36.62
45991;BME280;31721;41.740;-88.000;2022-09-01T00:49:53;98914.53;;;27.05;37.02
45991;BME280;31721;41.740;-88.000;2022-09-01T00:52:28;98914.35;;;27.02;37.32
45991;BME280;31721;41.740;-88.000;2022-09-01T00:55:00;98913.43;;;26.91;37.54
45991;BME280;31721;41.740;-88.000;2022-09-01T00:57:29;98914.48;;;26.67;37.86
45991;BME280;31721;41.740;-88.000;2022-09-01T00:59:59;98919.89;;;26.65;38.01
45991;BME280;31721;41.740;-88.000;2022-09-01T01:02:28;98922.69;;;26.62;38.21
45991;BME280;31721;41.740;-88.000;2022-09-01T01:04:55;98922.93;;;26.62;38.47
45991;BME280;31721;41.740;-88.000;2022-09-01T01:07:23;98924.36;;;26.53;38.66
45991;BME280;31721;41.740;-88.000;2022-09-01T01:09:51;98928.10;;;26.40;38.84
45991;BME280;31721;41.740;-88.000;2022-09-01T01:12:23;98931.93;;;26.38;39.02
45991;BME280;31721;41.740;-88.000;2022-09-01T01:14:51;98934.67;;;26.22;39.13
45991;BME280;31721;41.740;-88.000;2022-09-01T01:17:20;98936.39;;;26.24;39.65
45991;BME280;31721;41.740;-88.000;2022-09-01T01:19:51;98938.58;;;26.18;39.81
45991;BME280;31721;41.740;-88.000;2022-09-01T01:22:23;98937.95;;;26.11;39.98
45991;BME280;31721;41.740;-88.000;2022-09-01T01:24:54;98939.67;;;26.02;40.10
45991;BME280;31721;41.740;-88.000;2022-09-01T01:27:22;98943.27;;;25.93;40.27
45991;BME280;31721;41.740;-88.000;2022-09-01T01:29:49;98941.66;;;25.79;40.36
45991;BME280;31721;41.740;-88.000;2022-09-01T01:32:17;98947.07;;;25.84;40.60
45991;BME280;31721;41.740;-88.000;2022-09-01T01:34:45;98953.49;;;25.59;40.88
45991;BME280;31721;41.740;-88.000;2022-09-01T01:37:13;98955.23;;;25.49;41.04
45991;BME280;31721;41.740;-88.000;2022-09-01T01:39:41;98957.79;;;25.46;41.28
45991;BME280;31721;41.740;-88.000;2022-09-01T01:42:09;98959.90;;;25.45;41.33
45991;BME280;31721;41.740;-88.000;2022-09-01T01:44:38;98961.24;;;25.52;41.76
45991;BME280;31721;41.740;-88.000;2022-09-01T01:47:11;98963.03;;;25.48;42.02
45991;BME280;31721;41.740;-88.000;2022-09-01T01:49:40;98963.45;;;25.40;42.06
45991;BME280;31721;41.740;-88.000;2022-09-01T01:52:13;98964.85;;;25.33;42.35
45991;BME280;31721;41.740;-88.000;2022-09-01T01:54:42;98962.66;;;25.28;42.72
45991;BME280;31721;41.740;-88.000;2022-09-01T01:57:10;98966.24;;;25.22;43.00
45991;BME280;31721;41.740;-88.000;2022-09-01T01:59:38;98974.04;;;25.16;43.17
45991;BME280;31721;41.740;-88.000;2022-09-01T02:02:06;98978.48;;;25.09;43.45
45991;BME280;31721;41.740;-88.000;2022-09-01T02:04:34;98979.79;;;25.03;43.59
45991;BME280;31721;41.740;-88.000;2022-09-01T02:07:01;98981.93;;;24.97;43.90
45991;BME280;31721;41.740;-88.000;2022-09-01T02:09:29;98985.70;;;24.97;44.02
45991;BME280;31721;41.740;-88.000;2022-09-01T02:11:57;98987.22;;;24.83;44.22
45991;BME280;31721;41.740;-88.000;2022-09-01T02:14:25;98986.64;;;24.74;44.39
45991;BME280;31721;41.740;-88.000;2022-09-01T02:16:52;98988.21;;;24.71;44.57
45991;BME280;31721;41.740;-88.000;2022-09-01T02:19:21;98992.84;;;24.68;44.67
45991;BME280;31721;41.740;-88.000;2022-09-01T02:21:49;98991.14;;;24.74;44.80
45991;BME280;31721;41.740;-88.000;2022-09-01T02:24:16;98989.63;;;24.60;44.98
45991;BME280;31721;41.740;-88.000;2022-09-01T02:26:44;98994.73;;;24.66;45.39
45991;BME280;31721;41.740;-88.000;2022-09-01T02:29:16;98999.72;;;24.64;45.28
45991;BME280;31721;41.740;-88.000;2022-09-01T02:31:46;99003.18;;;24.56;45.33
45991;BME280;31721;41.740;-88.000;2022-09-01T02:34:15;99003.85;;;24.60;45.54
45991;BME280;31721;41.740;-88.000;2022-09-01T02:36:45;99004.82;;;24.57;45.94
45991;BME280;31721;41.740;-88.000;2022-09-01T02:39:14;99008.55;;;24.51;45.95
45991;BME280;31721;41.740;-88.000;2022-09-01T02:41:43;99009.79;;;24.36;46.31
45991;BME280;31721;41.740;-88.000;2022-09-01T02:44:11;99010.99;;;24.40;46.38
45991;BME280;31721;41.740;-88.000;2022-09-01T02:46:40;99011.95;;;24.35;46.64
45991;BME280;31721;41.740;-88.000;2022-09-01T02:49:15;99012.30;;;24.24;46.77
45991;BME280;31721;41.740;-88.000;2022-09-01T02:51:46;99016.89;;;24.27;46.95
45991;BME280;31721;41.740;-88.000;2022-09-01T02:54:15;99016.92;;;24.23;47.02
45991;BME280;31721;41.740;-88.000;2022-09-01T02:56:43;99019.27;;;24.19;47.06
45991;BME280;31721;41.740;-88.000;2022-09-01T02:59:11;99024.56;;;24.07;47.24
45991;BME280;31721;41.740;-88.000;2022-09-01T03:01:39;99025.22;;;24.12;47.35
45991;BME280;31721;41.740;-88.000;2022-09-01T03:04:08;99029.33;;;24.08;47.41
45991;BME280;31721;41.740;-88.000;2022-09-01T03:06:38;99028.40;;;24.08;47.61
45991;BME280;31721;41.740;-88.000;2022-09-01T03:09:09;99029.26;;;24.09;47.82
45991;BME280;31721;41.740;-88.000;2022-09-01T03:11:41;99029.01;;;24.30;47.57
45991;BME280;31721;41.740;-88.000;2022-09-01T03:14:09;99032.95;;;24.30;47.75
45991;BME280;31721;41.740;-88.000;2022-09-01T03:16:37;99033.87;;;24.45;47.79
45991;BME280;31721;41.740;-88.000;2022-09-01T03:19:11;99035.70;;;24.56;47.47
45991;BME280;31721;41.740;-88.000;2022-09-01T03:21:41;99038.70;;;24.38;47.74
45991;BME280;31721;41.740;-88.000;2022-09-01T03:24:10;99038.80;;;24.63;48.02
45991;BME280;31721;41.740;-88.000;2022-09-01T03:26:38;99035.96;;;24.63;47.45
45991;BME280;31721;41.740;-88.000;2022-09-01T03:29:07;99033.39;;;24.62;47.70
45991;BME280;31721;41.740;-88.000;2022-09-01T03:31:35;99031.62;;;24.73;47.89
45991;BME280;31721;41.740;-88.000;2022-09-01T03:34:03;99033.85;;;24.67;47.69
45991;BME280;31721;41.740;-88.000;2022-09-01T03:36:32;99031.45;;;24.69;47.75
45991;BME280;31721;41.740;-88.000;2022-09-01T03:39:00;99031.92;;;24.57;47.69
45991;BME280;31721;41.740;-88.000;2022-09-01T03:41:29;99035.15;;;24.66;47.59
45991;BME280;31721;41.740;-88.000;2022-09-01T03:43:57;99036.19;;;24.61;48.02
45991;BME280;31721;41.740;-88.000;2022-09-01T03:46:25;99035.13;;;24.77;47.43
45991;BME280;31721;41.740;-88.000;2022-09-01T03:48:55;99035.89;;;24.73;47.92
45991;BME280;31721;41.740;-88.000;2022-09-01T03:51:25;99033.89;;;24.65;47.82
45991;BME280;31721;41.740;-88.000;2022-09-01T03:53:53;99037.49;;;24.67;48.07
45991;BME280;31721;41.740;-88.000;2022-09-01T03:56:22;99034.63;;;24.58;48.04
45991;BME280;31721;41.740;-88.000;2022-09-01T03:58:50;99035.71;;;24.72;48.36
45991;BME280;31721;41.740;-88.000;2022-09-01T04:01:18;99036.45;;;24.54;48.33
45991;BME280;31721;41.740;-88.000;2022-09-01T04:03:46;99037.46;;;24.57;48.50
45991;BME280;31721;41.740;-88.000;2022-09-01T04:06:14;99039.42;;;24.34;48.28
45991;BME280;31721;41.740;-88.000;2022-09-01T04:08:42;99038.48;;;24.17;48.39
45991;BME280;31721;41.740;-88.000;2022-09-01T04:11:11;99036.14;;;24.11;48.75
45991;BME280;31721;41.740;-88.000;2022-09-01T04:13:40;99036.59;;;24.15;48.86
45991;BME280;31721;41.740;-88.000;2022-09-01T04:16:17;99035.93;;;24.06;48.78
45991;BME280;31721;41.740;-88.000;2022-09-01T04:18:45;99036.78;;;23.94;49.15
45991;BME280;31721;41.740;-88.000;2022-09-01T04:21:12;99035.61;;;23.90;49.23
45991;BME280;31721;41.740;-88.000;2022-09-01T04:23:40;99034.91;;;23.97;49.52
45991;BME280;31721;41.740;-88.000;2022-09-01T04:26:10;99037.91;;;23.75;49.35
45991;BME280;31721;41.740;-88.000;2022-09-01T04:28:40;99038.22;;;23.89;49.57
45991;BME280;31721;41.740;-88.000;2022-09-01T04:31:11;99038.99;;;23.76;49.73
45991;BME280;31721;41.740;-88.000;2022-09-01T04:33:40;99037.26;;;23.71;50.20
45991;BME280;31721;41.740;-88.000;2022-09-01T04:36:16;99037.41;;;23.88;49.96
45991;BME280;31721;41.740;-88.000;2022-09-01T04:38:44;99039.05;;;23.74;50.05
45991;BME280;31721;41.740;-88.000;2022-09-01T04:41:12;99039.86;;;23.73;50.02
45991;BME280;31721;41.740;-88.000;2022-09-01T04:43:40;99042.19;;;23.73;50.27
45991;BME280;31721;41.740;-88.000;2022-09-01T04:46:08;99041.21;;;23.87;50.06
45991;BME280;31721;41.740;-88.000;2022-09-01T04:48:35;99041.19;;;23.97;50.01
45991;BME280;31721;41.740;-88.000;2022-09-01T04:51:08;99040.19;;;23.82;50.12
45991;BME280;31721;41.740;-88.000;2022-09-01T04:53:36;99041.51;;;23.75;50.14
45991;BME280;31721;41.740;-88.000;2022-09-01T04:56:04;99042.65;;;23.81;50.09
45991;BME280;31721;41.740;-88.000;2022-09-01T04:58:32;99046.24;;;23.70;50.47
45991;BME280;31721;41.740;-88.000;2022-09-01T05:01:00;99047.18;;;23.87;50.32
45991;BME280;31721;41.740;-88.000;2022-09-01T05:03:28;99045.57;;;23.78;50.33
45991;BME280;31721;41.740;-88.000;2022-09-01T05:05:55;99047.61;;;23.69;50.41
45991;BME280;31721;41.740;-88.000;2022-09-01T05:08:23;99050.46;;;23.65;50.35
45991;BME280;31721;41.740;-88.000;2022-09-01T05:10:52;99053.69;;;23.53;50.54
45991;BME280;31721;41.740;-88.000;2022-09-01T05:13:21;99052.33;;;23.61;50.64
45991;BME280;31721;41.740;-88.000;2022-09-01T05:16:00;99052.30;;;23.61;50.47
45991;BME280;31721;41.740;-88.000;2022-09-01T05:18:29;99050.25;;;23.61;50.40
45991;BME280;31721;41.740;-88.000;2022-09-01T05:20:56;99049.93;;;23.60;50.40
45991;BME280;31721;41.740;-88.000;2022-09-01T05:23:24;99048.46;;;23.54;50.60
45991;BME280;31721;41.740;-88.000;2022-09-01T05:25:52;99052.08;;;23.50;50.51
45991;BME280;31721;41.740;-88.000;2022-09-01T05:28:20;99054.64;;;23.47;50.66
45991;BME280;31721;41.740;-88.000;2022-09-01T05:30:48;99054.31;;;23.48;50.93
45991;BME280;31721;41.740;-88.000;2022-09-01T05:33:16;99052.83;;;23.40;50.90
45991;BME280;31721;41.740;-88.000;2022-09-01T05:35:53;99053.25;;;23.35;50.83
45991;BME280;31721;41.740;-88.000;2022-09-01T05:38:22;99053.71;;;23.38;50.90
45991;BME280;31721;41.740;-88.000;2022-09-01T05:40:55;99049.70;;;23.57;51.08
45991;BME280;31721;41.740;-88.000;2022-09-01T05:43:23;99049.90;;;23.33;50.60
45991;BME280;31721;41.740;-88.000;2022-09-01T05:45:51;99048.47;;;23.05;50.98
45991;BME280;31721;41.740;-88.000;2022-09-01T05:48:19;99049.44;;;22.98;51.30
45991;BME280;31721;41.740;-88.000;2022-09-01T05:50:47;99048.43;;;22.94;51.33
45991;BME280;31721;41.740;-88.000;2022-09-01T05:53:15;99045.12;;;22.87;51.56
45991;BME280;31721;41.740;-88.000;2022-09-01T05:55:43;99047.98;;;22.85;51.81
45991;BME280;31721;41.740;-88.000;2022-09-01T05:58:11;99049.88;;;22.83;51.87
45991;BME280;31721;41.740;-88.000;2022-09-01T06:00:41;99047.40;;;22.82;51.91
45991;BME280;31721;41.740;-88.000;2022-09-01T06:03:10;99043.50;;;22.95;52.18
45991;BME280;31721;41.740;-88.000;2022-09-01T06:05:37;99040.13;;;22.99;51.85
45991;BME280;31721;41.740;-88.000;2022-09-01T06:08:06;99039.62;;;22.94;52.08
45991;BME280;31721;41.740;-88.000;2022-09-01T06:10:36;99037.63;;;22.90;52.20
45991;BME280;31721;41.740;-88.000;2022-09-01T06:13:04;99037.76;;;22.92;52.10
45991;BME280;31721;41.740;-88.000;2022-09-01T06:15:32;99040.43;;;22.91;52.05
45991;BME280;31721;41.740;-88.000;2022-09-01T06:18:00;99044.86;;;23.04;52.19
45991;BME280;31721;41.740;-88.000;2022-09-01T06:20:28;99043.79;;;23.04;52.13
45991;BME280;31721;41.740;-88.000;2022-09-01T06:22:55;99041.49;;;22.97;52.12
45991;BME280;31721;41.740;-88.000;2022-09-01T06:25:23;99040.91;;;22.71;52.04
45991;BME280;31721;41.740;-88.000;2022-09-01T06:27:51;99039.50;;;22.68;52.52
45991;BME280;31721;41.740;-88.000;2022-09-01T06:30:18;99038.28;;;22.77;52.49
45991;BME280;31721;41.740;-88.000;2022-09-01T06:32:46;99038.28;;;22.81;52.56
45991;BME280;31721;41.740;-88.000;2022-09-01T06:35:15;99039.00;;;22.75;52.50
45991;BME280;31721;41.740;-88.000;2022-09-01T06:37:43;99038.62;;;22.70;52.73
45991;BME280;31721;41.740;-88.000;2022-09-01T06:40:13;99036.94;;;22.51;52.68
45991;BME280;31721;41.740;-88.000;2022-09-01T06:42:41;99035.94;;;22.46;52.75
45991;BME280;31721;41.740;-88.000;2022-09-01T06:45:10;99031.42;;;22.43;52.80
45991;BME280;31721;41.740;-88.000;2022-09-01T06:47:38;99028.78;;;22.42;52.97
45991;BME280;31721;41.740;-88.000;2022-09-01T06:50:06;99028.92;;;22.25;53.10
45991;BME280;31721;41.740;-88.000;2022-09-01T06:52:34;99027.35;;;22.36;53.05
45991;BME280;31721;41.740;-88.000;2022-09-01T06:55:02;99025.99;;;22.40;53.02
45991;BME280;31721;41.740;-88.000;2022-09-01T06:57:29;99023.48;;;22.33;53.09
45991;BME280;31721;41.740;-88.000;2022-09-01T06:59:56;99024.08;;;22.47;53.16
45991;BME280;31721;41.740;-88.000;2022-09-01T07:02:24;99022.63;;;22.26;53.13
45991;BME280;31721;41.740;-88.000;2022-09-01T07:04:52;99019.25;;;22.18;53.20
45991;BME280;31721;41.740;-88.000;2022-09-01T07:07:19;99020.94;;;22.06;53.39
45991;BME280;31721;41.740;-88.000;2022-09-01T07:09:47;99020.99;;;21.95;53.53
45991;BME280;31721;41.740;-88.000;2022-09-01T07:12:14;99022.58;;;21.90;53.53
45991;BME280;31721;41.740;-88.000;2022-09-01T07:14:41;99025.78;;;21.86;53.73
45991;BME280;31721;41.740;-88.000;2022-09-01T07:17:08;99025.94;;;21.83;54.13
45991;BME280;31721;41.740;-88.000;2022-09-01T07:19:36;99026.50;;;21.71;54.18
45991;BME280;31721;41.740;-88.000;2022-09-01T07:22:04;99024.09;;;21.66;54.31
45991;BME280;31721;41.740;-88.000;2022-09-01T07:24:31;99026.49;;;21.75;54.49
45991;BME280;31721;41.740;-88.000;2022-09-01T07:26:59;99027.82;;;21.69;54.34
45991;BME280;31721;41.740;-88.000;2022-09-01T07:29:27;99029.57;;;21.68;54.23
45991;BME280;31721;41.740;-88.000;2022-09-01T07:31:55;99027.58;;;21.65;54.43
45991;BME280;31721;41.740;-88.000;2022-09-01T07:34:23;99027.70;;;21.62;54.47
45991;BME280;31721;41.740;-88.000;2022-09-01T07:36:51;99030.15;;;21.62;54.45
45991;BME280;31721;41.740;-88.000;2022-09-01T07:39:18;99030.28;;;21.66;54.61
45991;BME280;31721;41.740;-88.000;2022-09-01T07:41:46;99028.23;;;21.71;54.46
45991;BME280;31721;41.740;-88.000;2022-09-01T07:44:14;99028.86;;;21.61;54.52
45991;BME280;31721;41.740;-88.000;2022-09-01T07:46:42;99031.36;;;21.66;54.49
45991;BME280;31721;41.740;-88.000;2022-09-01T07:49:09;99032.88;;;21.55;54.56
45991;BME280;31721;41.740;-88.000;2022-09-01T07:51:37;99034.73;;;21.45;54.73
45991;BME280;31721;41.740;-88.000;2022-09-01T07:54:05;99034.93;;;21.50;54.83
45991;BME280;31721;41.740;-88.000;2022-09-01T07:56:32;99036.10;;;21.59;55.00
45991;BME280;31721;41.740;-88.000;2022-09-01T07:58:59;99036.26;;;21.69;55.01
45991;BME280;31721;41.740;-88.000;2022-09-01T08:01:27;99037.88;;;21.78;54.77
45991;BME280;31721;41.740;-88.000;2022-09-01T08:03:57;99041.46;;;21.84;54.70
45991;BME280;31721;41.740;-88.000;2022-09-01T08:06:27;99045.80;;;21.99;54.72
45991;BME280;31721;41.740;-88.000;2022-09-01T08:11:43;99046.40;;;21.68;54.65
45991;BME280;31721;41.740;-88.000;2022-09-01T08:14:10;99047.38;;;21.78;54.81
45991;BME280;31721;41.740;-88.000;2022-09-01T08:16:37;99044.15;;;21.82;54.83
45991;BME280;31721;41.740;-88.000;2022-09-01T08:19:10;99047.03;;;21.75;55.05
45991;BME280;31721;41.740;-88.000;2022-09-01T08:21:37;99052.04;;;21.77;55.08
45991;BME280;31721;41.740;-88.000;2022-09-01T08:24:05;99057.09;;;21.59;54.84
45991;BME280;31721;41.740;-88.000;2022-09-01T08:26:33;99058.75;;;21.42;54.98
45991;BME280;31721;41.740;-88.000;2022-09-01T08:29:01;99058.47;;;21.38;55.15
45991;BME280;31721;41.740;-88.000;2022-09-01T08:31:29;99053.57;;;21.27;55.40
45991;BME280;31721;41.740;-88.000;2022-09-01T08:33:57;99050.68;;;21.28;55.47
45991;BME280;31721;41.740;-88.000;2022-09-01T08:36:25;99047.11;;;21.47;55.41
45991;BME280;31721;41.740;-88.000;2022-09-01T08:38:53;99047.03;;;21.29;55.30
45991;BME280;31721;41.740;-88.000;2022-09-01T08:41:30;99047.53;;;21.29;55.30
45991;BME280;31721;41.740;-88.000;2022-09-01T08:44:12;99048.24;;;21.28;55.35
45991;BME280;31721;41.740;-88.000;2022-09-01T08:46:43;99046.67;;;21.29;55.34
45991;BME280;31721;41.740;-88.000;2022-09-01T08:49:15;99046.11;;;21.41;55.23
45991;BME280;31721;41.740;-88.000;2022-09-01T08:51:48;99052.45;;;21.18;55.09
45991;BME280;31721;41.740;-88.000;2022-09-01T08:54:21;99052.02;;;20.97;55.18
45991;BME280;31721;41.740;-88.000;2022-09-01T08:56:53;99052.30;;;20.99;55.50
45991;BME280;31721;41.740;-88.000;2022-09-01T08:59:22;99049.10;;;20.85;55.70
45991;BME280;31721;41.740;-88.000;2022-09-01T09:01:55;99051.00;;;20.78;55.73
45991;BME280;31721;41.740;-88.000;2022-09-01T09:04:37;99052.35;;;20.73;56.08
45991;BME280;31721;41.740;-88.000;2022-09-01T09:07:11;99053.72;;;20.69;56.30
45991;BME280;31721;41.740;-88.000;2022-09-01T09:09:44;99053.60;;;20.61;56.40
45991;BME280;31721;41.740;-88.000;2022-09-01T09:12:27;99054.26;;;20.63;56.44
45991;BME280;31721;41.740;-88.000;2022-09-01T09:15:09;99056.00;;;20.54;56.63
45991;BME280;31721;41.740;-88.000;2022-09-01T09:17:45;99055.66;;;20.52;56.72
45991;BME280;31721;41.740;-88.000;2022-09-01T09:20:15;99055.17;;;20.58;56.84
45991;BME280;31721;41.740;-88.000;2022-09-01T09:22:45;99057.60;;;20.50;56.78
45991;BME280;31721;41.740;-88.000;2022-09-01T09:25:16;99058.56;;;20.47;56.78
45991;BME280;31721;41.740;-88.000;2022-09-01T09:27:45;99057.86;;;20.52;56.89
45991;BME280;31721;41.740;-88.000;2022-09-01T09:30:21;99056.75;;;20.44;56.84
45991;BME280;31721;41.740;-88.000;2022-09-01T09:32:55;99055.02;;;20.42;56.93
45991;BME280;31721;41.740;-88.000;2022-09-01T09:35:26;99055.29;;;20.40;57.04
45991;BME280;31721;41.740;-88.000;2022-09-01T09:37:55;99057.10;;;20.39;56.96
45991;BME280;31721;41.740;-88.000;2022-09-01T09:40:24;99057.02;;;20.38;56.95
45991;BME280;31721;41.740;-88.000;2022-09-01T09:43:05;99058.32;;;20.38;56.96
45991;BME280;31721;41.740;-88.000;2022-09-01T09:45:35;99061.25;;;20.44;56.76
45991;BME280;31721;41.740;-88.000;2022-09-01T09:48:07;99062.45;;;20.38;56.81
45991;BME280;31721;41.740;-88.000;2022-09-01T09:50:37;99064.75;;;20.41;56.61
45991;BME280;31721;41.740;-88.000;2022-09-01T09:53:16;99064.07;;;20.47;56.60
45991;BME280;31721;41.740;-88.000;2022-09-01T09:55:54;99067.74;;;20.35;56.50
45991;BME280;31721;41.740;-88.000;2022-09-01T09:58:24;99068.48;;;20.60;56.39
45991;BME280;31721;41.740;-88.000;2022-09-01T10:01:03;99071.26;;;20.75;56.12
45991;BME280;31721;41.740;-88.000;2022-09-01T10:03:42;99071.14;;;20.92;55.90
45991;BME280;31721;41.740;-88.000;2022-09-01T10:06:13;99070.93;;;21.28;55.29
45991;BME280;31721;41.740;-88.000;2022-09-01T10:08:44;99072.15;;;21.23;55.23
45991;BME280;31721;41.740;-88.000;2022-09-01T10:11:26;99071.50;;;21.24;55.37
45991;BME280;31721;41.740;-88.000;2022-09-01T10:13:54;99068.55;;;21.01;55.30
45991;BME280;31721;41.740;-88.000;2022-09-01T10:16:27;99066.46;;;20.83;55.39
45991;BME280;31721;41.740;-88.000;2022-09-01T10:18:58;99064.10;;;20.53;55.56
45991;BME280;31721;41.740;-88.000;2022-09-01T10:21:32;99064.38;;;20.46;55.87
45991;BME280;31721;41.740;-88.000;2022-09-01T10:24:01;99067.60;;;20.32;56.07
45991;BME280;31721;41.740;-88.000;2022-09-01T10:26:36;99071.17;;;20.34;56.30
45991;BME280;31721;41.740;-88.000;2022-09-01T10:29:08;99072.50;;;20.19;56.66
45991;BME280;31721;41.740;-88.000;2022-09-01T10:31:40;99070.81;;;20.17;56.83
45991;BME280;31721;41.740;-88.000;2022-09-01T10:34:12;99074.70;;;20.11;57.02
45991;BME280;31721;41.740;-88.000;2022-09-01T10:36:43;99073.16;;;20.02;57.14
45991;BME280;31721;41.740;-88.000;2022-09-01T10:39:13;99075.54;;;19.85;57.38
45991;BME280;31721;41.740;-88.000;2022-09-01T10:41:57;99075.28;;;19.87;57.74
45991;BME280;31721;41.740;-88.000;2022-09-01T10:44:27;99077.45;;;19.59;57.99
45991;BME280;31721;41.740;-88.000;2022-09-01T10:46:57;99081.80;;;19.64;58.41
45991;BME280;31721;41.740;-88.000;2022-09-01T10:50:01;99083.46;;;19.62;58.42
45991;BME280;31721;41.740;-88.000;2022-09-01T10:57:43;99080.08;;;19.44;58.92
45991;BME280;31721;41.740;-88.000;2022-09-01T11:02:04;99082.45;;;19.58;58.79
45991;BME280;31721;41.740;-88.000;2022-09-01T11:09:29;99082.00;;;19.49;58.87
45991;BME280;31721;41.740;-88.000;2022-09-01T11:12:12;99081.77;;;19.58;58.76
45991;BME280;31721;41.740;-88.000;2022-09-01T11:14:50;99084.07;;;19.58;58.70
45991;BME280;31721;41.740;-88.000;2022-09-01T11:17:20;99084.38;;;19.57;58.81
45991;BME280;31721;41.740;-88.000;2022-09-01T11:20:02;99084.76;;;19.47;58.77
45991;BME280;31721;41.740;-88.000;2022-09-01T11:22:33;99086.88;;;19.46;58.80
45991;BME280;31721;41.740;-88.000;2022-09-01T11:25:13;99089.24;;;19.43;58.64
45991;BME280;31721;41.740;-88.000;2022-09-01T11:28:00;99099.88;;;19.43;58.83
45991;BME280;31721;41.740;-88.000;2022-09-01T11:30:36;99104.28;;;19.52;58.85
45991;BME280;31721;41.740;-88.000;2022-09-01T11:33:55;99109.15;;;19.52;58.94
45991;BME280;31721;41.740;-88.000;2022-09-01T11:36:30;99114.07;;;19.52;58.94
45991;BME280;31721;41.740;-88.000;2022-09-01T11:39:05;99118.69;;;19.43;58.92
45991;BME280;31721;41.740;-88.000;2022-09-01T11:41:45;99120.44;;;19.44;58.77
45991;BME280;31721;41.740;-88.000;2022-09-01T11:44:21;99120.87;;;19.50;58.75
45991;BME280;31721;41.740;-88.000;2022-09-01T11:46:50;99122.14;;;19.42;58.73
45991;BME280;31721;41.740;-88.000;2022-09-01T11:49:27;99126.17;;;19.44;58.59
45991;BME280;31721;41.740;-88.000;2022-09-01T11:52:02;99134.18;;;19.55;58.51
45991;BME280;31721;41.740;-88.000;2022-09-01T11:54:38;99138.97;;;19.63;58.61
45991;BME280;31721;41.740;-88.000;2022-09-01T11:57:25;99142.45;;;19.67;58.39
45991;BME280;31721;41.740;-88.000;2022-09-01T11:59:54;99142.63;;;19.83;58.27
45991;BME280;31721;41.740;-88.000;2022-09-01T12:02:29;99143.39;;;19.74;58.24
45991;BME280;31721;41.740;-88.000;2022-09-01T12:04:59;99138.79;;;19.63;58.30
45991;BME280;31721;41.740;-88.000;2022-09-01T12:07:38;99140.30;;;19.64;58.51
45991;BME280;31721;41.740;-88.000;2022-09-01T12:10:18;99138.34;;;19.67;58.77
45991;BME280;31721;41.740;-88.000;2022-09-01T12:13:00;99137.75;;;19.66;58.66
45991;BME280;31721;41.740;-88.000;2022-09-01T12:15:28;99137.85;;;19.61;58.85
45991;BME280;31721;41.740;-88.000;2022-09-01T12:18:12;99135.72;;;19.85;58.44
45991;BME280;31721;41.740;-88.000;2022-09-01T12:20:40;99136.40;;;19.82;58.65
45991;BME280;31721;41.740;-88.000;2022-09-01T12:23:21;99142.15;;;19.78;58.81
45991;BME280;31721;41.740;-88.000;2022-09-01T12:25:52;99143.15;;;19.94;58.84
45991;BME280;31721;41.740;-88.000;2022-09-01T12:28:21;99145.57;;;19.93;58.88
45991;BME280;31721;41.740;-88.000;2022-09-01T12:30:49;99147.65;;;19.92;58.74
45991;BME280;31721;41.740;-88.000;2022-09-01T12:33:18;99150.99;;;19.98;58.66
45991;BME280;31721;41.740;-88.000;2022-09-01T12:35:46;99154.70;;;20.03;58.63
45991;BME280;31721;41.740;-88.000;2022-09-01T12:38:22;99155.95;;;20.10;58.73
45991;BME280;31721;41.740;-88.000;2022-09-01T12:40:52;99159.88;;;20.26;58.85
45991;BME280;31721;41.740;-88.000;2022-09-01T12:43:30;99160.77;;;20.26;58.84
45991;BME280;31721;41.740;-88.000;2022-09-01T12:46:00;99161.96;;;20.27;58.85
45991;BME280;31721;41.740;-88.000;2022-09-01T12:48:30;99160.17;;;20.55;58.47
45991;BME280;31721;41.740;-88.000;2022-09-01T12:50:59;99161.02;;;20.57;57.86
45991;BME280;31721;41.740;-88.000;2022-09-01T12:53:30;99160.66;;;20.70;57.55
45991;BME280;31721;41.740;-88.000;2022-09-01T12:56:05;99162.50;;;20.73;57.46
45991;BME280;31721;41.740;-88.000;2022-09-01T12:58:34;99163.28;;;20.87;57.21
45991;BME280;31721;41.740;-88.000;2022-09-01T13:01:03;99165.27;;;20.94;57.46
45991;BME280;31721;41.740;-88.000;2022-09-01T13:03:33;99166.09;;;21.28;56.84
45991;BME280;31721;41.740;-88.000;2022-09-01T13:06:02;99167.39;;;21.23;56.71
45991;BME280;31721;41.740;-88.000;2022-09-01T13:08:31;99164.15;;;21.36;56.83
45991;BME280;31721;41.740;-88.000;2022-09-01T13:11:03;99163.79;;;21.50;56.31